Time;durP1;ratioP1;P1;durP2;ratioP2;P2;SDS_P1;SDS_P2;PMS_P1;PMS_P2;Temp;Humidity;BMP_temperature;BMP_pressure;BME280_temperature;BME280_humidity;BME280_pressure;Samples;Min_cycle;Max_cycle;Signal;HPM_P1;HPM_P2
2022/09/24 00:00:52;;;;;;;11.60;10.50;;;;;;;9.35;100.00;-18043.31;5114311;28;20638;-61
2022/09/24 00:03:20;;;;;;;10.40;9.80;;;;;;;9.17;100.00;-18038.97;5113481;28;20194;-62
2022/09/24 00:05:48;;;;;;;13.70;8.83;;;;;;;8.99;100.00;-18034.63;5114043;28;20656;-61
2022/09/24 00:08:17;;;;;;;9.13;8.23;;;;;;;9.15;100.00;-18038.59;5113957;28;20179;-62
2022/09/24 00:10:45;;;;;;;13.03;8.37;;;;;;;8.99;100.00;-18034.63;5113921;28;20641;-61
2022/09/24 00:13:15;;;;;;;8.70;7.73;;;;;;;8.90;100.00;-18032.56;5113975;28;20270;-60
2022/09/24 00:15:44;;;;;;;7.70;7.30;;;;;;;8.80;100.00;-18030.00;5113489;28;20203;-61
2022/09/24 00:18:18;;;;;;;7.97;7.57;;;;;;;8.89;100.00;-18032.19;5113924;27;20249;-62
2022/09/24 00:20:45;;;;;;;11.10;7.60;;;;;;;8.76;100.00;-18029.03;5113607;28;20546;-61
2022/09/24 00:23:12;;;;;;;11.13;7.90;;;;;;;8.51;100.00;-18023.22;5113746;28;20234;-61
2022/09/24 00:28:27;;;;;;;8.30;7.60;;;;;;;8.64;100.00;-18026.25;5113493;28;20249;-61
2022/09/24 00:30:56;;;;;;;8.40;7.60;;;;;;;8.62;100.00;-18025.78;5113478;28;20218;-61
2022/09/24 00:33:25;;;;;;;8.17;7.60;;;;;;;8.34;100.00;-18019.00;5113563;28;20187;-61
2022/09/24 00:35:52;;;;;;;7.63;7.30;;;;;;;8.59;100.00;-18025.03;5113131;28;20253;-60
2022/09/24 00:38:19;;;;;;;8.43;7.83;;;;;;;8.75;100.00;-18028.91;5113342;28;20183;-61
2022/09/24 00:40:46;;;;;;;7.87;7.27;;;;;;;8.73;100.00;-18026.47;5113331;28;20188;-61
2022/09/24 00:43:24;;;;;;;8.40;7.70;;;;;;;8.76;100.00;-18027.19;5113117;28;20187;-61
2022/09/24 00:45:54;;;;;;;8.67;8.00;;;;;;;8.93;100.00;-18033.16;5112958;28;20179;-62
2022/09/24 00:48:21;;;;;;;8.53;8.03;;;;;;;8.87;100.00;-18031.81;5113529;28;20215;-63
2022/09/24 00:50:50;;;;;;;8.43;7.80;;;;;;;8.68;100.00;-18027.34;5113117;28;20581;-62
2022/09/24 00:53:19;;;;;;;8.80;7.90;;;;;;;8.90;100.00;-18032.44;5112829;28;20190;-60
2022/09/24 00:55:50;;;;;;;10.07;8.57;;;;;;;8.90;100.00;-18032.56;5112836;28;20200;-60
2022/09/24 00:58:17;;;;;;;8.57;7.97;;;;;;;9.00;100.00;-18034.84;5112615;28;20187;-62
2022/09/24 01:00:45;;;;;;;8.00;7.70;;;;;;;8.93;100.00;-18033.28;5112695;28;20184;-60
2022/09/24 01:03:16;;;;;;;8.63;8.03;;;;;;;8.73;100.00;-18028.44;5112479;28;20183;-61
2022/09/24 01:05:43;;;;;;;8.10;7.63;;;;;;;8.76;100.00;-18029.03;5112564;28;20183;-61
2022/09/24 01:08:14;;;;;;;8.20;7.57;;;;;;;8.55;100.00;-18024.06;5112496;28;20183;-61
2022/09/24 01:10:54;;;;;;;7.37;6.97;;;;;;;8.24;100.00;-18016.81;5112534;28;20194;-61
2022/09/24 01:13:51;;;;;;;7.70;7.30;;;;;;;8.53;100.00;-18023.59;5095652;28;20680;-61
2022/09/24 01:16:28;;;;;;;8.40;7.70;;;;;;;8.52;100.00;-18023.34;5093670;28;20290;-61
2022/09/24 01:19:08;;;;;;;8.53;7.97;;;;;;;8.10;100.00;-18013.28;5112084;28;20241;-61
2022/09/24 01:21:40;;;;;;;8.83;8.27;;;;;;;8.06;100.00;-18012.44;5112371;28;20278;-60
2022/09/24 01:24:41;;;;;;;8.87;8.27;;;;;;;8.35;100.00;-18019.34;5112685;28;20195;-61
2022/09/24 01:27:15;;;;;;;9.93;9.23;;;;;;;8.36;100.00;-18019.47;5112648;28;20614;-61
2022/09/24 01:29:53;;;;;;;9.03;8.53;;;;;;;8.48;100.00;-18022.50;5112551;28;20187;-61
2022/09/24 01:32:25;;;;;;;10.53;9.70;;;;;;;8.52;100.00;-18023.47;5112586;28;20191;-61
2022/09/24 01:34:57;;;;;;;11.37;10.50;;;;;;;8.45;100.00;-18021.78;5112211;28;20193;-60
2022/09/24 01:37:27;;;;;;;10.57;9.67;;;;;;;8.56;100.00;-18024.44;5112767;28;20593;-61
2022/09/24 01:39:56;;;;;;;11.60;10.60;;;;;;;8.55;100.00;-18024.06;5112177;28;20179;-61
2022/09/24 01:42:25;;;;;;;11.10;10.33;;;;;;;8.49;100.00;-18022.63;5112475;28;20582;-61
2022/09/24 01:44:56;;;;;;;11.73;10.77;;;;;;;8.44;100.00;-18021.53;5112426;28;20195;-60
2022/09/24 01:47:29;;;;;;;14.90;11.27;;;;;;;8.50;100.00;-18022.97;5112048;28;20175;-61
2022/09/24 01:49:56;;;;;;;11.90;10.90;;;;;;;8.55;100.00;-18024.19;5112104;28;20183;-61
2022/09/24 01:52:29;;;;;;;11.93;10.90;;;;;;;8.69;100.00;-18027.59;5112410;28;20531;-61
2022/09/24 01:54:59;;;;;;;11.23;10.27;;;;;;;8.75;100.00;-18028.91;5112034;28;20190;-62
2022/09/24 01:57:30;;;;;;;8.97;8.20;;;;;;;8.58;100.00;-18024.91;5112029;28;20303;-61
2022/09/24 02:00:04;;;;;;;9.60;9.00;;;;;;;8.59;100.00;-18025.03;5112222;28;20190;-61
2022/09/24 02:02:37;;;;;;;8.57;7.97;;;;;;;8.73;100.00;-18028.31;5112028;28;20228;-61
2022/09/24 02:05:12;;;;;;;9.07;8.27;;;;;;;8.68;100.00;-18025.50;5111971;28;20193;-62
2022/09/24 02:07:45;;;;;;;8.63;8.13;;;;;;;8.83;100.00;-18030.84;5111947;28;20185;-61
2022/09/24 02:10:15;;;;;;;9.70;7.50;;;;;;;8.88;100.00;-17713.19;5112365;28;20290;-60
2022/09/24 02:12:46;;;;;;;7.83;7.20;;;;;;;8.15;100.00;-17696.09;5112187;28;20552;-62
2022/09/24 02:15:20;;;;;;;8.10;7.33;;;;;;;8.39;100.00;-17385.13;5112042;28;20275;-61
2022/09/24 02:17:53;;;;;;;7.83;7.07;;;;;;;8.41;100.00;-17385.56;5112107;28;20630;-61
2022/09/24 02:20:23;;;;;;;7.60;7.10;;;;;;;8.56;100.00;-17072.13;5112125;28;20252;-61
2022/09/24 02:22:51;;;;;;;7.47;6.80;;;;;;;8.34;100.00;-16433.78;5112252;28;20199;-61
2022/09/24 02:25:23;;;;;;;7.67;7.10;;;;;;;8.19;100.00;-15163.56;5111872;28;20187;-61
2022/09/24 02:27:50;;;;;;;7.97;6.37;;;;;;;8.14;100.00;-17696.00;5115134;28;20186;-61
2022/09/24 02:30:19;;;;;;;8.20;7.37;;;;;;;8.28;100.00;-17699.31;5115933;28;20526;-61
2022/09/24 02:32:47;;;;;;;10.30;6.67;;;;;;;8.21;100.00;-17697.53;5097571;28;20194;-61
2022/09/24 02:38:36;;;;;;;7.00;6.60;;;;;;;8.57;100.00;-18022.81;5115601;28;20247;-60
2022/09/24 02:41:06;;;;;;;13.10;7.20;;;;;;;8.53;100.00;-18023.72;5115706;28;20183;-61
2022/09/24 02:43:34;;;;;;;8.30;7.43;;;;;;;8.64;100.00;-18024.53;5115656;28;20653;-60
2022/09/24 02:46:03;;;;;;;7.27;6.60;;;;;;;8.67;100.00;-18025.25;5115641;28;20669;-62
2022/09/24 02:48:30;;;;;;;16.43;7.07;;;;;;;8.62;100.00;-17707.13;5097315;28;20184;-61
2022/09/24 02:50:57;;;;;;;7.10;6.47;;;;;;;8.90;100.00;-17713.66;5115183;28;20561;-61
2022/09/24 02:53:26;;;;;;;14.17;7.37;;;;;;;8.98;100.00;-17715.56;5115243;28;20190;-61
2022/09/24 02:55:54;;;;;;;8.10;7.30;;;;;;;9.21;100.00;-18038.06;5115155;28;20223;-62
2022/09/24 02:58:21;;;;;;;8.73;7.87;;;;;;;9.37;100.00;-18043.81;5115392;28;20621;-62
2022/09/24 03:00:48;;;;;;;12.03;8.13;;;;;;;9.49;100.00;-18044.84;5115032;28;20240;-61
2022/09/24 03:03:17;;;;;;;8.40;7.87;;;;;;;9.57;100.00;-17729.53;5115002;28;20183;-61
2022/09/24 03:05:44;;;;;;;9.23;8.50;;;;;;;9.52;100.00;-17093.78;5115058;28;20203;-61
2022/09/24 03:08:11;;;;;;;9.57;8.87;;;;;;;9.59;100.00;-15825.69;5114977;28;20201;-61
2022/09/24 03:10:38;;;;;;;11.57;9.43;;;;;;;9.83;100.00;-15512.94;5115169;28;20179;-61
2022/09/24 03:13:05;;;;;;;10.17;9.47;;;;;;;9.89;100.00;-13607.53;5115317;28;20244;-61
2022/09/24 03:15:32;;;;;;;11.30;10.20;;;;;;;9.89;100.00;-13289.75;5097207;28;20187;-61
2022/09/24 03:17:59;;;;;;;10.90;8.83;;;;;;;10.03;100.00;-12338.09;5114629;28;20234;-61
2022/09/24 03:20:28;;;;;;;11.77;8.60;;;;;;;10.12;100.00;-11384.94;5114693;28;20191;-60
2022/09/24 03:22:55;;;;;;;9.47;8.90;;;;;;;10.21;100.00;-10431.28;5114826;28;20201;-61
2022/09/24 03:25:22;;;;;;;9.97;9.47;;;;;;;10.15;100.00;-8838.81;5114785;28;20308;-61
2022/09/24 03:27:48;;;;;;;10.27;9.77;;;;;;;10.11;100.00;-7245.94;5114581;28;20176;-62
2022/09/24 03:33:03;;;;;;;10.00;9.40;;;;;;;10.10;100.00;-6927.31;5114572;28;20178;-62
2022/09/24 03:35:31;;;;;;;10.90;10.00;;;;;;;10.16;100.00;-6927.66;5114773;28;20187;-61
2022/09/24 03:37:58;;;;;;;14.13;10.50;;;;;;;10.15;100.00;-7564.75;5113852;28;20665;-61
2022/09/24 03:40:25;;;;;;;10.13;9.40;;;;;;;9.94;100.00;-8836.88;5114175;28;20561;-62
2022/09/24 03:42:52;;;;;;;11.27;10.23;;;;;;;9.93;100.00;-9473.38;5114586;28;20582;-61
2022/09/24 03:45:19;;;;;;;10.63;9.70;;;;;;;9.52;100.00;-10105.28;5114224;28;20189;-60
2022/09/24 03:47:46;;;;;;;14.57;11.67;;;;;;;9.52;100.00;-10423.31;5114456;28;20180;-60
2022/09/24 03:50:12;;;;;;;17.50;11.97;;;;;;;9.59;100.00;-11060.03;5114173;28;20211;-62
2022/09/24 03:52:41;;;;;;;24.77;12.37;;;;;;;9.38;100.00;-12646.09;5114059;28;20184;-61
2022/09/24 03:55:08;;;;;;;18.10;11.53;;;;;;;9.44;100.00;-13282.44;5113968;28;20184;-61
2022/09/24 03:57:35;;;;;;;11.33;10.17;;;;;;;9.59;100.00;-13284.91;5114217;28;20599;-61
2022/09/24 04:00:03;;;;;;;11.67;10.33;;;;;;;9.54;100.00;-12648.63;5114240;28;20203;-61
2022/09/24 04:02:30;;;;;;;15.83;9.90;;;;;;;9.54;100.00;-11695.22;5114080;28;20183;-61
2022/09/24 04:04:56;;;;;;;10.60;9.50;;;;;;;9.60;100.00;-11378.06;5114227;28;20630;-61
2022/09/24 04:07:23;;;;;;;12.20;9.97;;;;;;;9.58;100.00;-10742.00;5113896;28;20186;-59
2022/09/24 04:09:51;;;;;;;14.20;10.23;;;;;;;9.56;100.00;-10423.78;5113983;28;20188;-61
2022/09/24 04:12:19;;;;;;;10.23;9.30;;;;;;;9.58;100.00;-10106.00;5113664;28;20190;-61
2022/09/24 04:14:45;;;;;;;12.97;9.97;;;;;;;9.65;100.00;-9788.66;5113626;28;20187;-61
2022/09/24 04:17:13;;;;;;;12.67;10.93;;;;;;;9.64;100.00;-8197.78;5113525;28;20210;-61
2022/09/24 04:19:40;;;;;;;23.67;13.00;;;;;;;9.76;100.00;-7562.03;5113413;28;20238;-61
2022/09/24 04:22:07;;;;;;;15.63;12.33;;;;;;;9.81;100.00;-5970.03;5113281;28;20183;-62
2022/09/24 04:24:34;;;;;;;16.70;12.90;;;;;;;9.93;100.00;-4058.34;5113439;28;20278;-60
2022/09/24 04:27:02;;;;;;;19.53;12.83;;;;;;;9.99;100.00;-1825.88;5113241;28;20176;-62
2022/09/24 04:29:29;;;;;;;16.33;12.47;;;;;;;9.97;100.00;-868.69;5113573;28;20190;-62
2022/09/24 04:31:56;;;;;;;14.07;12.57;;;;;;;10.06;100.00;-229.94;5113607;28;20199;-61
2022/09/24 04:34:23;;;;;;;17.07;12.60;;;;;;;10.22;100.00;1048.34;5113231;28;20183;-61
2022/09/24 04:36:50;;;;;;;15.03;12.37;;;;;;;10.43;100.00;2967.69;5113191;28;20207;-60
2022/09/24 04:39:17;;;;;;;12.67;11.37;;;;;;;10.89;100.00;8736.88;5113089;28;20223;-60
2022/09/24 04:41:46;;;;;;;12.57;11.33;;;;;;;11.55;100.00;23865.31;5113110;28;20187;-61
2022/09/24 04:44:15;;;;;;;10.73;9.60;;;;;;;12.60;100.00;55705.72;5113375;28;20266;-61
2022/09/24 04:46:42;;;;;;;11.00;8.37;;;;;;;12.95;100.00;128585.19;5113402;28;20747;-61
2022/09/24 04:49:09;;;;;;;9.07;8.30;;;;;;;13.55;100.00;149443.81;5113065;28;20588;-60
2022/09/24 04:51:36;;;;;;;8.90;7.77;;;;;;;13.35;100.00;149394.44;5112494;28;20743;-62
2022/09/24 04:54:03;;;;;;;18.00;16.20;;;;;;;13.62;100.00;149461.59;5113311;28;20634;-62
2022/09/24 04:56:30;;;;;;;10.43;9.43;;;;;;;13.63;100.00;149464.09;5113079;28;20183;-62
2022/09/24 04:58:57;;;;;;;8.90;8.37;;;;;;;14.47;100.00;149674.56;5112668;28;20211;-61
2022/09/24 05:01:25;;;;;;;8.37;7.97;;;;;;;14.68;100.00;149727.81;5113046;28;20183;-62
2022/09/24 05:03:53;;;;;;;8.70;7.93;;;;;;;15.21;100.00;149859.72;5112953;28;20297;-61
2022/09/24 05:06:20;;;;;;;9.43;9.03;;;;;;;16.24;100.00;150118.66;5113071;28;20267;-61
2022/09/24 05:08:47;;;;;;;11.60;10.70;;;;;;;16.65;100.00;150222.81;5112871;28;20188;-61
2022/09/24 05:11:13;;;;;;;11.03;10.27;;;;;;;17.22;100.00;150365.13;5112963;28;20202;-61
2022/09/24 05:13:41;;;;;;;9.07;8.53;;;;;;;17.35;100.00;150398.16;5094454;28;20179;-61
2022/09/24 05:16:08;;;;;;;8.53;7.60;;;;;;;17.39;100.00;150408.31;5112689;28;20184;-61
2022/09/24 05:18:36;;;;;;;7.90;7.40;;;;;;;17.44;100.00;150421.00;5094310;28;20313;-61
2022/09/24 05:21:03;;;;;;;7.37;6.97;;;;;;;17.25;100.00;150372.72;5112448;28;20190;-62
2022/09/24 05:23:30;;;;;;;8.97;8.27;;;;;;;17.49;100.00;150433.69;5113032;28;20637;-63
2022/09/24 05:28:41;;;;;;;10.67;9.60;;;;;;;17.32;100.00;150391.78;5112516;28;20178;-62
2022/09/24 05:31:09;;;;;;;10.00;9.43;;;;;;;17.44;100.00;150421.00;5112351;28;20190;-60
2022/09/24 05:33:38;;;;;;;13.80;9.33;;;;;;;17.01;100.00;150311.75;5112544;28;20630;-62
2022/09/24 05:36:05;;;;;;;13.67;9.40;;;;;;;17.23;100.00;150368.91;5112549;28;20226;-60
2022/09/24 05:38:32;;;;;;;12.23;9.40;;;;;;;16.89;100.00;150283.78;5112148;28;20203;-61
2022/09/24 05:40:59;;;;;;;13.60;9.40;;;;;;;16.55;100.00;150197.38;5112202;28;20236;-62
2022/09/24 05:43:27;;;;;;;8.67;7.83;;;;;;;17.09;100.00;150333.34;5112439;28;20568;-61
2022/09/24 05:45:57;;;;;;;13.23;8.00;;;;;;;17.22;100.00;150366.41;5094100;28;20184;-60
2022/09/24 05:48:24;;;;;;;11.87;9.83;;;;;;;17.05;100.00;150321.91;5112253;28;20270;-60
2022/09/24 05:50:54;;;;;;;7.90;7.20;;;;;;;16.96;100.00;150299.03;5112489;28;20179;-61
2022/09/24 05:53:21;;;;;;;8.40;6.53;;;;;;;17.09;100.00;150333.34;5112416;28;20613;-61
2022/09/24 05:55:48;;;;;;;7.57;6.87;;;;;;;17.27;100.00;150379.06;5112395;28;20683;-61
2022/09/24 05:58:16;;;;;;;7.20;6.60;;;;;;;16.90;100.00;150286.34;5112275;28;20199;-60
2022/09/24 06:00:44;;;;;;;10.33;8.57;;;;;;;17.19;100.00;150358.72;5094249;28;20187;-61
2022/09/24 06:03:13;;;;;;;10.97;9.97;;;;;;;17.17;100.00;150353.69;5115990;28;20385;-61
2022/09/24 06:05:44;;;;;;;12.23;11.23;;;;;;;17.40;100.00;150410.81;5116539;28;20184;-61
2022/09/24 06:08:14;;;;;;;11.70;10.57;;;;;;;17.52;100.00;150440.09;5116295;28;20180;-61
2022/09/24 06:10:42;;;;;;;10.73;9.83;;;;;;;17.63;100.00;150469.34;5116195;28;20183;-61
2022/09/24 06:13:10;;;;;;;16.13;10.00;;;;;;;18.33;100.00;150644.75;5116296;28;20192;-60
2022/09/24 06:15:37;;;;;;;13.17;10.10;;;;;;;18.50;100.00;150686.75;5116289;28;20535;-61
2022/09/24 06:18:04;;;;;;;17.13;10.17;;;;;;;19.21;100.00;150866.16;5115818;28;20230;-63
2022/09/24 06:20:32;;;;;;;24.53;11.63;;;;;;;20.05;100.00;151077.47;5115969;28;20186;-61
2022/09/24 06:22:59;;;;;;;14.20;8.10;;;;;;;20.62;100.00;151221.44;5116110;28;20653;-61
2022/09/24 06:25:29;;;;;;;27.10;10.17;;;;;;;20.51;100.00;151194.66;5116169;28;20602;-61
2022/09/24 06:27:59;;;;;;;6.57;5.00;;;;;;;20.68;100.00;151235.41;5115769;28;20195;-60
2022/09/24 06:30:27;;;;;;;9.53;4.73;;;;;;;20.49;100.00;151189.59;5116078;28;20545;-62
2022/09/24 06:32:54;;;;;;;4.93;4.50;;;;;;;20.50;100.00;151192.09;5115905;28;20622;-61
2022/09/24 06:35:21;;;;;;;3.40;2.63;;;;;;;20.69;100.00;151237.97;5115645;28;20188;-61
2022/09/24 06:37:49;;;;;;;2.60;1.80;;;;;;;20.61;100.00;151218.88;5115465;28;20199;-60
2022/09/24 06:40:16;;;;;;;2.47;2.20;;;;;;;20.40;100.00;151166.66;5115894;28;20184;-62
2022/09/24 06:42:44;;;;;;;5.00;1.98;;;;;;;20.39;100.00;151164.09;5115571;28;20629;-62
2022/09/24 06:45:14;;;;;;;2.43;2.20;;;;;;;20.69;99.18;151237.97;5115262;28;20183;-61
2022/09/24 06:47:41;;;;;;;2.33;1.80;;;;;;;20.48;97.39;151187.03;5115297;28;20184;-61
2022/09/24 06:50:09;;;;;;;1.90;1.80;;;;;;;20.40;98.21;151166.66;5115461;28;20194;-61
2022/09/24 06:52:35;;;;;;;3.73;2.00;;;;;;;20.19;99.75;151113.13;5115245;28;20194;-61
2022/09/24 06:55:02;;;;;;;2.60;2.40;;;;;;;20.41;100.00;151169.19;5115243;28;20184;-61
2022/09/24 06:57:29;;;;;;;1.80;1.70;;;;;;;20.39;100.00;151164.09;5115081;28;20297;-61
2022/09/24 06:59:58;;;;;;;1.80;1.70;;;;;;;20.26;99.75;151130.94;5115106;28;20196;-61
2022/09/24 07:02:24;;;;;;;4.47;2.00;;;;;;;20.59;99.25;151213.75;5115471;28;20190;-61
2022/09/24 07:04:51;;;;;;;2.37;2.17;;;;;;;20.54;98.52;151199.78;5115363;28;20634;-61
2022/09/24 07:07:32;;;;;;;2.30;2.20;;;;;;;20.48;95.01;151185.75;5115001;28;20187;-61
2022/09/24 07:10:00;;;;;;;4.30;2.00;;;;;;;20.44;94.83;151176.84;5114846;28;20190;-61
2022/09/24 07:12:27;;;;;;;3.20;2.57;;;;;;;20.41;97.76;151169.19;5114311;28;20199;-60
2022/09/24 07:14:54;;;;;;;3.75;3.45;;;;;;;20.51;96.41;151194.66;5114237;28;20194;-61
2022/09/24 07:17:22;;;;;;;3.97;2.40;;;;;;;20.71;94.17;151243.09;5115000;28;20565;-61
2022/09/24 07:19:49;;;;;;;2.45;1.83;;;;;;;20.70;96.07;151240.53;5114305;28;20230;-61
2022/09/24 07:22:18;;;;;;;2.63;2.03;;;;;;;20.80;94.52;151267.25;5114907;28;20645;-60
2022/09/24 07:24:45;;;;;;;2.65;2.13;;;;;;;21.04;95.42;151327.16;5114602;28;20270;-62
2022/09/24 07:27:12;;;;;;;1.60;1.50;;;;;;;21.06;93.06;151330.94;5114956;28;20187;-62
2022/09/24 07:29:39;;;;;;;1.75;1.65;;;;;;;21.15;92.75;151355.22;5114931;28;20194;-61
2022/09/24 07:32:06;;;;;;;1.98;1.70;;;;;;;20.88;93.66;151286.34;5114785;28;20187;-61
2022/09/24 07:34:34;;;;;;;2.25;1.88;;;;;;;20.82;94.94;151271.09;5114488;28;20220;-62
2022/09/24 07:37:01;;;;;;;1.85;1.75;;;;;;;20.71;98.21;151243.09;5114263;28;20193;-61
2022/09/24 07:39:28;;;;;;;1.92;1.83;;;;;;;20.76;96.90;151257.06;5114490;28;20203;-61
2022/09/24 07:41:55;;;;;;;2.47;1.80;;;;;;;20.70;94.79;151240.53;5114144;28;20194;-61
2022/09/24 07:44:22;;;;;;;2.17;1.80;;;;;;;20.82;97.38;151271.09;5114526;28;20288;-60
2022/09/24 07:46:50;;;;;;;1.73;1.63;;;;;;;20.90;96.45;151291.47;5114385;28;20252;-62
2022/09/24 07:49:17;;;;;;;1.98;1.88;;;;;;;21.05;95.36;151329.66;5114238;28;20180;-61
2022/09/24 07:51:46;;;;;;;1.95;1.80;;;;;;;21.10;93.79;151342.41;5114433;28;20192;-62
2022/09/24 07:54:13;;;;;;;3.80;1.88;;;;;;;21.03;92.60;151324.59;5114465;28;20693;-62
2022/09/24 07:56:40;;;;;;;3.00;2.42;;;;;;;21.17;92.99;151360.34;5096400;28;20647;-62
2022/09/24 07:59:09;;;;;;;2.78;1.65;;;;;;;21.07;89.84;151334.78;5114135;28;20213;-61
2022/09/24 08:01:37;;;;;;;3.40;2.17;;;;;;;21.06;90.62;151332.22;5114232;28;20183;-61
2022/09/24 08:04:04;;;;;;;2.75;1.98;;;;;;;21.11;91.70;151344.97;5113905;28;20219;-62
2022/09/24 08:06:33;;;;;;;2.30;2.20;;;;;;;21.34;91.15;151402.38;5113822;28;20190;-61
2022/09/24 08:09:01;;;;;;;2.53;1.90;;;;;;;21.36;90.99;151408.72;5096087;28;20225;-62
2022/09/24 08:11:29;;;;;;;3.35;2.63;;;;;;;21.34;90.48;151403.63;5114082;28;20556;-60
2022/09/24 08:13:56;;;;;;;1.95;1.80;;;;;;;21.66;87.49;151482.66;5113873;28;20222;-62
2022/09/24 08:16:24;;;;;;;2.03;1.90;;;;;;;21.63;90.26;151476.28;5113697;28;20190;-61
2022/09/24 08:18:51;;;;;;;2.08;1.98;;;;;;;21.49;86.17;151439.31;5113405;28;20262;-61
2022/09/24 08:21:18;;;;;;;1.77;1.67;;;;;;;21.87;85.66;151537.47;5113603;28;20183;-61
2022/09/24 08:23:45;;;;;;;2.97;2.13;;;;;;;22.15;83.47;151607.59;5113965;28;20195;-61
2022/09/24 08:26:14;;;;;;;4.75;1.60;;;;;;;22.03;79.83;151577.00;5113357;28;20337;-61
2022/09/24 08:28:41;;;;;;;1.65;1.55;;;;;;;22.51;80.06;151698.16;5113708;28;20664;-61
2022/09/24 08:31:11;;;;;;;1.23;1.20;;;;;;;22.40;79.30;151670.13;5113303;28;20179;-61
2022/09/24 08:33:38;;;;;;;2.70;1.45;;;;;;;22.87;77.81;151787.50;5095462;28;20228;-60
2022/09/24 08:36:08;;;;;;;1.63;1.40;;;;;;;23.23;75.71;151880.63;5113533;28;20194;-62
2022/09/24 08:38:35;;;;;;;1.55;1.50;;;;;;;23.30;72.87;151895.97;5113426;28;20609;-60
2022/09/24 08:41:18;;;;;;;1.42;1.35;;;;;;;23.57;69.48;151966.19;5113392;28;20240;-61
2022/09/24 08:43:55;;;;;;;2.38;1.98;;;;;;;24.10;67.10;152098.94;5113005;28;20273;-61
2022/09/24 08:49:16;;;;;;;1.63;1.20;;;;;;;25.13;63.32;152358.25;5113140;28;20182;-61
2022/09/24 08:51:52;;;;;;;3.50;1.38;;;;;;;25.58;60.49;152473.34;5113219;28;20187;-62
2022/09/24 08:54:22;;;;;;;3.35;1.20;;;;;;;25.76;57.81;152519.31;5113108;28;20183;-61
2022/09/24 08:56:51;;;;;;;3.47;1.17;;;;;;;25.77;55.22;152521.88;5112790;28;20233;-61
2022/09/24 08:59:27;;;;;;;1.40;1.30;;;;;;;26.47;53.34;152698.34;5112944;28;20203;-61
2022/09/24 09:02:13;;;;;;;1.10;1.10;;;;;;;26.55;49.59;152718.81;5113017;28;20179;-60
2022/09/24 09:04:53;;;;;;;1.10;0.88;;;;;;;26.15;51.88;152617.75;5113044;28;20191;-61
2022/09/24 09:07:23;;;;;;;1.50;1.25;;;;;;;26.79;50.26;152780.19;5112982;28;20183;-61
2022/09/24 09:09:54;;;;;;;1.10;1.10;;;;;;;26.89;48.19;152803.25;5112408;28;20183;-61
2022/09/24 09:12:25;;;;;;;1.10;1.10;;;;;;;27.63;46.45;152992.63;5113201;28;20678;-61
2022/09/24 09:15:02;;;;;;;1.58;1.20;;;;;;;28.04;44.35;153095.03;5112749;28;20669;-61
2022/09/24 09:17:41;;;;;;;2.13;1.10;;;;;;;27.53;44.55;152967.06;5112734;28;20183;-61
2022/09/24 09:20:14;;;;;;;1.95;1.02;;;;;;;27.48;44.84;152954.25;5112858;28;20732;-61
2022/09/24 09:22:46;;;;;;;1.65;1.15;;;;;;;26.83;45.42;152789.13;5112581;28;20256;-60
2022/09/24 09:25:24;;;;;;;0.90;0.90;;;;;;;27.22;44.48;152887.66;5112708;28;20703;-61
2022/09/24 09:27:58;;;;;;;0.85;0.85;;;;;;;26.29;44.54;152653.59;5112568;28;20183;-60
2022/09/24 09:30:31;;;;;;;1.38;1.25;;;;;;;26.44;45.55;152690.66;5112736;28;20654;-60
2022/09/24 09:33:12;;;;;;;0.98;0.93;;;;;;;27.69;42.64;153006.72;5112613;28;20561;-61
2022/09/24 09:35:47;;;;;;;1.75;0.90;;;;;;;27.27;43.01;152900.47;5111996;28;20208;-62
2022/09/24 09:38:22;;;;;;;2.47;1.00;;;;;;;26.93;42.13;152814.78;5094374;28;20687;-66
2022/09/24 09:40:57;;;;;;;1.10;1.10;;;;;;;26.21;43.20;152631.84;5112340;28;20244;-65
2022/09/24 09:43:25;;;;;;;0.90;0.70;;;;;;;26.92;42.80;152812.19;5112421;28;20184;-65
2022/09/24 09:46:07;;;;;;;0.98;0.90;;;;;;;27.03;40.96;152839.09;5112536;28;20211;-66
2022/09/24 09:48:44;;;;;;;0.80;0.80;;;;;;;26.57;42.21;152722.63;5112695;28;20562;-66
2022/09/24 09:51:19;;;;;;;0.80;0.80;;;;;;;26.47;40.79;152698.34;5112406;28;20179;-65
2022/09/24 09:53:55;;;;;;;0.90;0.90;;;;;;;26.70;40.07;152755.88;5112576;28;20178;-66
2022/09/24 09:56:26;;;;;;;0.47;0.47;;;;;;;26.29;39.30;152652.31;5112499;28;20180;-65
2022/09/24 09:59:02;;;;;;;0.50;0.50;;;;;;;26.96;38.39;152822.44;5094371;28;20203;-65
2022/09/24 10:01:34;;;;;;;0.98;0.68;;;;;;;27.24;37.61;152894.03;5112213;28;20179;-66
2022/09/24 10:04:03;;;;;;;0.80;0.80;;;;;;;27.23;37.10;152890.25;5112194;28;20187;-65
2022/09/24 10:06:32;;;;;;;1.63;0.70;;;;;;;27.31;38.28;152910.69;5111760;28;20632;-66
2022/09/24 10:09:13;;;;;;;0.60;0.60;;;;;;;27.06;38.14;152846.75;5112348;28;20179;-65
2022/09/24 10:11:41;;;;;;;0.80;0.80;;;;;;;27.17;38.43;152876.16;5112198;28;20209;-65
2022/09/24 10:14:11;;;;;;;2.00;1.00;;;;;;;27.27;38.74;152900.47;5111994;28;20249;-65
2022/09/24 10:16:42;;;;;;;0.80;0.80;;;;;;;27.13;38.90;152864.63;5112453;28;20222;-65
2022/09/24 10:19:17;;;;;;;0.70;0.70;;;;;;;27.40;38.76;152932.47;5112044;28;20238;-66
2022/09/24 10:21:44;;;;;;;0.88;0.70;;;;;;;28.10;37.66;153111.69;5112762;28;20226;-65
2022/09/24 10:24:16;;;;;;;0.75;0.70;;;;;;;28.45;36.83;153200.03;5112437;28;20203;-65
2022/09/24 10:26:45;;;;;;;2.83;0.75;;;;;;;28.37;36.18;153179.56;5112053;28;20184;-65
2022/09/24 10:32:06;;;;;;;0.70;0.70;;;;;;;28.81;33.91;153291.00;5086000;28;20196;-65
2022/09/24 10:34:33;;;;;;;0.60;0.60;;;;;;;27.82;32.90;153038.69;5112172;28;20190;-65
2022/09/24 10:37:02;;;;;;;1.35;0.50;;;;;;;26.85;35.52;152793.03;5111645;28;20194;-64
2022/09/24 10:39:29;;;;;;;1.45;0.60;;;;;;;27.54;35.47;152968.34;5111970;28;20203;-65
2022/09/24 10:41:58;;;;;;;0.68;0.60;;;;;;;28.79;34.38;153284.56;5111969;28;20629;-65
2022/09/24 10:44:32;;;;;;;0.70;0.70;;;;;;;29.25;33.36;153402.41;5112108;28;20210;-65
2022/09/24 10:47:23;;;;;;;0.60;0.60;;;;;;;29.25;33.93;153402.41;5111736;28;20186;-67
2022/09/24 10:50:07;;;;;;;0.60;0.60;;;;;;;28.64;34.48;153246.13;5115334;28;20183;-65
2022/09/24 10:52:51;;;;;;;0.68;0.68;;;;;;;28.52;34.21;153216.66;5115371;28;20187;-65
2022/09/24 10:55:28;;;;;;;1.95;0.60;;;;;;;26.69;37.44;152754.59;5115561;28;20564;-63
2022/09/24 10:58:02;;;;;;;0.77;0.77;;;;;;;26.80;36.87;152781.47;5115254;28;20225;-65
2022/09/24 11:00:38;;;;;;;1.75;0.88;;;;;;;27.06;38.02;152846.75;5115456;28;20207;-65
2022/09/24 11:03:31;;;;;;;0.80;0.80;;;;;;;27.14;37.40;152868.50;5115071;28;20191;-63
2022/09/24 11:06:02;;;;;;;3.75;0.77;;;;;;;25.12;39.46;152356.97;5112669;28;20209;-64
2022/09/24 11:09:03;;;;;;;0.93;0.90;;;;;;;24.13;42.00;152107.88;5115431;28;20278;-65
2022/09/24 11:11:41;;;;;;;2.03;0.60;;;;;;;23.75;43.64;152009.56;5115146;28;20188;-65
2022/09/24 11:14:25;;;;;;;0.75;0.75;;;;;;;23.63;44.45;151981.50;5115126;28;20636;-65
2022/09/24 11:17:28;;;;;;;1.58;0.80;;;;;;;23.51;46.74;151949.56;5115109;28;20558;-64
2022/09/24 11:20:23;;;;;;;0.85;0.80;;;;;;;23.11;46.27;151850.00;5094724;28;20199;-64
2022/09/24 11:23:14;;;;;;;3.40;1.20;;;;;;;22.59;47.42;151718.56;5086271;28;20199;-63
2022/09/24 11:25:51;;;;;;;0.70;0.70;;;;;;;22.58;50.61;151714.72;5094682;28;20184;-64
2022/09/24 11:28:38;;;;;;;1.60;0.90;;;;;;;22.48;49.87;151689.25;5094262;28;20187;-64
2022/09/24 11:31:12;;;;;;;0.85;0.85;;;;;;;22.52;50.78;151700.72;5094571;28;20282;-64
2022/09/24 11:34:00;;;;;;;1.27;1.17;;;;;;;22.86;50.65;151786.22;5094231;28;20191;-64
2022/09/24 11:36:47;;;;;;;0.80;0.80;;;;;;;22.55;48.42;151708.38;5094393;28;20210;-64
2022/09/24 11:39:35;;;;;;;2.05;0.90;;;;;;;22.60;47.82;151721.13;5094344;28;20212;-64
2022/09/24 11:42:15;;;;;;;1.45;0.90;;;;;;;22.44;49.22;151679.03;5094347;28;20570;-64
2022/09/24 11:45:18;;;;;;;1.77;0.80;;;;;;;22.56;50.66;151710.94;5093945;28;20184;-64
2022/09/24 11:48:23;;;;;;;1.00;1.00;;;;;;;22.63;48.89;151727.50;5051543;28;20199;-64
2022/09/24 11:51:01;;;;;;;0.80;0.80;;;;;;;22.57;48.34;151713.50;5088572;28;20191;-63
2022/09/24 11:53:39;;;;;;;0.80;0.80;;;;;;;22.58;46.92;151714.72;5094120;28;20210;-63